Terminal Aerodrome Forecast
Issued by NWS

Home | Current Version | Previous Version | Graphics & Text | Print | Product List | Glossary On
Versions: 1 2 3 4 5 6 7 8 9 10 11 12 13 14 15 16 17 18 19 20 21 22 23 24 25 26
000
FTUS43 KABR 211800 AAA
TAFATY
TAF AMD
KATY 211816Z 2118/2218 18012KT 3SM BR OVC002
     FM212200 16013KT 4SM BR OVC007
     FM220500 15011KT 1SM BR OVC003
      TEMPO 2206/2210 3SM -RASN
     FM221000 10009KT 1SM -SN BR OVC003=

USA.gov is the U.S. government's official web portal to all federal, state and local government web resources and services.